createdAt,value
2022-09-23T00:00:59.142Z,5.13
2022-09-23T00:03:28.391Z,5.03
2022-09-23T00:05:59.948Z,4.60
2022-09-23T00:08:26.539Z,5.83
2022-09-23T00:10:53.315Z,4.87
2022-09-23T00:13:19.752Z,4.47
2022-09-23T00:15:46.735Z,4.50
2022-09-23T00:18:13.336Z,4.40
2022-09-23T00:20:40.422Z,9.03
2022-09-23T00:23:07.333Z,6.30
2022-09-23T00:25:33.944Z,7.63
2022-09-23T00:28:00.704Z,5.80
2022-09-23T00:30:27.233Z,4.77
2022-09-23T00:32:53.876Z,4.67
2022-09-23T00:35:20.353Z,4.27
2022-09-23T00:37:46.879Z,4.83
2022-09-23T00:40:13.747Z,4.23
2022-09-23T00:42:48.651Z,3.77
2022-09-23T00:45:15.861Z,4.33
2022-09-23T00:47:52.810Z,6.63
2022-09-23T00:50:37.071Z,4.97
2022-09-23T00:53:06.924Z,4.70
2022-09-23T00:55:46.085Z,5.40
2022-09-23T00:58:15.574Z,4.53
2022-09-23T01:00:42.410Z,4.50
2022-09-23T01:03:09.496Z,4.63
2022-09-23T01:05:39.951Z,4.33
2022-09-23T01:08:07.486Z,5.00
2022-09-23T01:10:58.914Z,5.03
2022-09-23T01:13:39.875Z,4.63
2022-09-23T01:16:41.536Z,6.20
2022-09-23T01:19:24.612Z,4.80
2022-09-23T01:22:23.510Z,5.33
2022-09-23T01:25:27.313Z,3.63
2022-09-23T01:28:03.889Z,5.60
2022-09-23T01:30:55.267Z,3.60
2022-09-23T01:33:29.008Z,3.70
2022-09-23T01:36:14.861Z,4.07
2022-09-23T01:39:00.243Z,4.10
2022-09-23T01:41:42.659Z,4.00
2022-09-23T01:44:20.224Z,3.53
2022-09-23T01:46:52.033Z,4.67
2022-09-23T01:49:29.341Z,6.40
2022-09-23T01:52:30.363Z,5.40
2022-09-23T01:55:20.628Z,3.40
2022-09-23T01:57:52.862Z,4.30
2022-09-23T02:00:22.331Z,4.90
2022-09-23T02:02:53.296Z,4.20
2022-09-23T02:05:33.557Z,4.17
2022-09-23T02:08:04.764Z,3.53
2022-09-23T02:10:37.420Z,2.77
2022-09-23T02:13:09.002Z,3.20
2022-09-23T02:15:40.325Z,4.23
2022-09-23T02:18:16.006Z,4.03
2022-09-23T02:20:43.634Z,4.10
2022-09-23T02:23:40.756Z,3.20
2022-09-23T02:26:39.765Z,3.53
2022-09-23T02:29:12.157Z,3.30
2022-09-23T02:31:55.965Z,3.57
2022-09-23T02:34:41.431Z,8.87
2022-09-23T02:37:15.458Z,3.50
2022-09-23T02:39:54.479Z,6.87
2022-09-23T02:42:25.331Z,3.67
2022-09-23T02:44:51.794Z,3.60
2022-09-23T02:47:20.612Z,4.30
2022-09-23T02:49:47.249Z,3.57
2022-09-23T02:52:13.804Z,3.30
2022-09-23T02:54:40.636Z,3.40
2022-09-23T02:57:08.034Z,3.77
2022-09-23T02:59:35.486Z,6.47
2022-09-23T03:02:08.118Z,3.87
2022-09-23T03:04:47.233Z,3.93
2022-09-23T03:07:18.366Z,5.33
2022-09-23T03:10:09.579Z,3.03
2022-09-23T03:13:15.482Z,3.37
2022-09-23T03:16:00.601Z,3.50
2022-09-23T03:18:40.382Z,3.43
2022-09-23T03:21:09.773Z,3.83
2022-09-23T03:23:38.891Z,3.40
2022-09-23T03:26:13.238Z,4.70
2022-09-23T03:28:41.945Z,3.53
2022-09-23T03:31:08.544Z,4.07
2022-09-23T03:33:36.850Z,5.10
2022-09-23T03:36:27.656Z,6.17
2022-09-23T03:39:03.801Z,5.23
2022-09-23T03:41:35.076Z,4.03
2022-09-23T03:44:02.258Z,3.97
2022-09-23T03:46:30.174Z,4.17
2022-09-23T03:49:00.358Z,3.07
2022-09-23T03:51:26.866Z,3.73
2022-09-23T03:53:53.351Z,4.00
2022-09-23T03:56:19.896Z,3.13
2022-09-23T03:58:46.661Z,4.20
2022-09-23T04:01:14.773Z,3.53
2022-09-23T04:03:41.772Z,6.97
2022-09-23T04:06:08.407Z,4.20
2022-09-23T04:08:35.010Z,4.40
2022-09-23T04:11:02.476Z,9.50
2022-09-23T04:13:29.407Z,3.60
2022-09-23T04:15:55.948Z,6.57
2022-09-23T04:18:22.514Z,3.93
2022-09-23T04:20:49.367Z,5.30
2022-09-23T04:23:16.050Z,3.57
2022-09-23T04:25:49.320Z,4.20
2022-09-23T04:28:16.067Z,3.97
2022-09-23T04:30:43.747Z,4.30
2022-09-23T04:33:11.152Z,4.47
2022-09-23T04:35:40.347Z,4.07
2022-09-23T04:38:07.288Z,4.03
2022-09-23T04:40:34.249Z,3.87
2022-09-23T04:43:00.879Z,6.20
2022-09-23T04:45:27.724Z,4.23
2022-09-23T04:47:54.546Z,3.93
2022-09-23T04:50:21.085Z,3.97
2022-09-23T04:52:47.568Z,4.30
2022-09-23T04:55:14.031Z,4.30
2022-09-23T04:57:40.473Z,8.50
2022-09-23T05:00:07.931Z,5.00
2022-09-23T05:02:35.625Z,5.40
2022-09-23T05:05:02.426Z,5.20
2022-09-23T05:07:28.993Z,5.13
2022-09-23T05:09:55.565Z,5.43
2022-09-23T05:12:22.045Z,6.53
2022-09-23T05:14:48.486Z,8.00
2022-09-23T05:17:15.518Z,5.87
2022-09-23T05:19:42.462Z,6.40
2022-09-23T05:22:08.932Z,10.20
2022-09-23T05:24:35.470Z,6.87
2022-09-23T05:27:02.161Z,5.50
2022-09-23T05:29:29.047Z,7.50
2022-09-23T05:31:55.617Z,7.20
2022-09-23T05:34:23.205Z,7.47
2022-09-23T05:36:50.366Z,9.63
2022-09-23T05:39:16.870Z,5.67
2022-09-23T05:41:43.685Z,5.70
2022-09-23T05:44:10.186Z,5.60
2022-09-23T05:46:36.865Z,8.87
2022-09-23T05:49:05.351Z,9.40
2022-09-23T05:51:33.433Z,9.73
2022-09-23T05:54:02.733Z,9.67
2022-09-23T05:56:30.354Z,6.13
2022-09-23T05:58:58.727Z,5.30
2022-09-23T06:01:27.997Z,7.50
2022-09-23T06:03:56.434Z,10.30
2022-09-23T06:06:33.163Z,4.57
2022-09-23T06:09:00.604Z,9.50
2022-09-23T06:11:29.937Z,4.77
2022-09-23T06:14:04.151Z,3.70
2022-09-23T06:16:35.409Z,5.73
2022-09-23T06:19:06.167Z,9.50
2022-09-23T06:21:34.977Z,5.37
2022-09-23T06:24:02.713Z,4.00
2022-09-23T06:26:33.870Z,5.17
2022-09-23T06:29:02.756Z,5.43
2022-09-23T06:31:29.808Z,7.67
2022-09-23T06:34:07.854Z,7.30
2022-09-23T06:36:43.094Z,6.17
2022-09-23T06:39:11.623Z,4.80
2022-09-23T06:41:39.114Z,5.87
2022-09-23T06:44:05.786Z,4.90
2022-09-23T06:46:32.365Z,8.60
2022-09-23T06:48:59.271Z,10.63
2022-09-23T06:51:25.900Z,4.70
2022-09-23T06:53:52.547Z,4.47
2022-09-23T06:56:20.989Z,5.10
2022-09-23T06:58:47.754Z,4.23
2022-09-23T07:01:16.245Z,4.17
2022-09-23T07:03:43.286Z,4.30
2022-09-23T07:06:09.917Z,7.67
2022-09-23T07:08:36.516Z,6.73
2022-09-23T07:11:05.492Z,3.87
2022-09-23T07:13:33.436Z,7.20
2022-09-23T07:16:01.892Z,5.70
2022-09-23T07:18:36.755Z,4.40
2022-09-23T07:21:14.971Z,4.67
2022-09-23T07:23:42.761Z,4.20
2022-09-23T07:26:09.439Z,4.67
2022-09-23T07:28:37.016Z,3.80
2022-09-23T07:31:06.572Z,3.87
2022-09-23T07:33:35.042Z,6.90
2022-09-23T07:36:07.171Z,4.37
2022-09-23T07:38:33.913Z,4.30
2022-09-23T07:41:05.761Z,6.40
2022-09-23T07:43:32.773Z,3.20
2022-09-23T07:46:03.101Z,3.50
2022-09-23T07:48:34.084Z,4.10
2022-09-23T07:51:07.707Z,3.30
2022-09-23T07:53:34.163Z,5.10
2022-09-23T07:56:00.795Z,3.07
2022-09-23T07:58:27.443Z,4.07
2022-09-23T08:00:54.113Z,3.20
2022-09-23T08:03:21.055Z,2.80
2022-09-23T08:05:47.697Z,2.63
2022-09-23T08:08:15.162Z,5.30
2022-09-23T08:10:42.693Z,4.90
2022-09-23T08:13:09.785Z,2.60
2022-09-23T08:15:36.370Z,3.80
2022-09-23T08:18:03.013Z,3.53
2022-09-23T08:20:47.140Z,4.83
2022-09-23T08:23:16.090Z,4.47
2022-09-23T08:25:47.241Z,3.07
2022-09-23T08:28:16.672Z,3.57
2022-09-23T08:30:44.361Z,4.70
2022-09-23T08:33:12.173Z,4.63
2022-09-23T08:35:38.903Z,3.83
2022-09-23T08:38:06.353Z,2.90
2022-09-23T08:40:35.466Z,4.63
2022-09-23T08:43:02.002Z,2.70
2022-09-23T08:45:29.084Z,2.63
2022-09-23T08:48:00.915Z,3.70
2022-09-23T08:50:39.383Z,2.63
2022-09-23T08:53:11.740Z,3.20
2022-09-23T08:55:42.512Z,5.43
2022-09-23T08:58:39.658Z,2.70
2022-09-23T09:01:44.399Z,5.03
2022-09-23T09:04:29.734Z,3.73
2022-09-23T09:07:12.300Z,5.00
2022-09-23T09:09:50.371Z,3.30
2022-09-23T09:13:00.216Z,3.30
2022-09-23T09:15:27.640Z,4.83
2022-09-23T09:18:07.838Z,3.87
2022-09-23T09:20:35.156Z,4.07
2022-09-23T09:23:09.860Z,3.23
2022-09-23T09:25:50.084Z,2.30
2022-09-23T09:28:35.819Z,2.90
2022-09-23T09:31:26.964Z,2.53
2022-09-23T09:34:17.059Z,2.60
2022-09-23T09:36:49.515Z,4.40
2022-09-23T09:39:16.317Z,4.73
2022-09-23T09:42:00.160Z,6.90
2022-09-23T09:44:40.720Z,2.70
2022-09-23T09:47:34.565Z,2.60
2022-09-23T09:50:08.498Z,2.50
2022-09-23T09:52:38.995Z,2.40
2022-09-23T09:55:14.480Z,4.90
2022-09-23T09:57:56.148Z,4.67
2022-09-23T10:00:23.206Z,4.23
2022-09-23T10:02:56.794Z,2.33
2022-09-23T10:05:56.700Z,5.87
2022-09-23T10:08:23.226Z,2.40
2022-09-23T10:10:59.112Z,2.30
2022-09-23T10:13:27.356Z,4.40
2022-09-23T10:15:54.979Z,2.93
2022-09-23T10:18:50.164Z,2.20
2022-09-23T10:21:23.102Z,7.73
2022-09-23T10:23:57.240Z,2.30
2022-09-23T10:26:59.310Z,2.80
2022-09-23T10:29:32.302Z,3.10
2022-09-23T10:32:20.341Z,2.23
2022-09-23T10:34:57.123Z,5.70
2022-09-23T10:37:45.434Z,3.20
2022-09-23T10:40:58.156Z,4.87
2022-09-23T10:43:46.472Z,10.43
2022-09-23T10:46:39.403Z,3.97
2022-09-23T10:49:43.773Z,2.60
2022-09-23T10:52:16.335Z,4.23
2022-09-23T10:55:08.277Z,2.17
2022-09-23T10:58:17.497Z,2.50
2022-09-23T11:01:14.807Z,4.63
2022-09-23T11:04:09.897Z,2.33
2022-09-23T11:06:53.873Z,2.10
2022-09-23T11:09:42.252Z,2.30
2022-09-23T11:12:27.619Z,2.40
2022-09-23T11:14:57.081Z,3.27
2022-09-23T11:17:46.878Z,5.57
2022-09-23T11:20:52.067Z,2.47
2022-09-23T11:23:51.613Z,2.73
2022-09-23T11:26:34.006Z,2.10
2022-09-23T11:29:45.728Z,3.17
2022-09-23T11:32:14.218Z,2.23
2022-09-23T11:34:54.949Z,2.50
2022-09-23T11:37:25.485Z,3.53
2022-09-23T11:40:05.414Z,3.30
2022-09-23T11:42:36.571Z,1.73
2022-09-23T11:45:06.872Z,2.40
2022-09-23T11:47:43.510Z,2.00
2022-09-23T11:50:25.733Z,2.30
2022-09-23T11:53:02.060Z,2.10
2022-09-23T11:55:33.040Z,3.70
2022-09-23T11:58:09.299Z,3.90
2022-09-23T12:00:51.123Z,3.60
2022-09-23T12:03:42.559Z,2.70
2022-09-23T12:06:15.727Z,2.50
2022-09-23T12:08:42.195Z,2.50
2022-09-23T12:11:08.906Z,2.43
2022-09-23T12:13:49.205Z,3.50
2022-09-23T12:16:30.809Z,2.07
2022-09-23T12:19:06.295Z,3.63
2022-09-23T12:21:53.059Z,2.80
2022-09-23T12:24:32.863Z,3.43
2022-09-23T12:27:06.028Z,3.07
2022-09-23T12:29:33.181Z,4.30
2022-09-23T12:31:59.767Z,4.93
2022-09-23T12:34:29.624Z,2.40
2022-09-23T12:37:04.243Z,2.43
2022-09-23T12:39:32.953Z,2.97
2022-09-23T12:42:03.748Z,2.93
2022-09-23T12:44:39.187Z,7.97
2022-09-23T12:47:14.964Z,3.83
2022-09-23T12:49:42.794Z,4.30
2022-09-23T12:52:15.348Z,6.30
2022-09-23T12:54:43.650Z,5.37
2022-09-23T12:57:33.151Z,2.70
2022-09-23T13:00:11.439Z,2.20
2022-09-23T13:02:46.971Z,3.03
2022-09-23T13:05:37.696Z,3.13
2022-09-23T13:08:17.048Z,3.40
2022-09-23T13:10:55.216Z,3.10
2022-09-23T13:13:26.453Z,2.33
2022-09-23T13:15:54.001Z,2.87
2022-09-23T13:18:20.503Z,2.20
2022-09-23T13:20:54.873Z,2.70
2022-09-23T13:23:31.257Z,2.30
2022-09-23T13:26:00.088Z,2.30
2022-09-23T13:28:28.309Z,2.30
2022-09-23T13:30:55.573Z,2.17
2022-09-23T13:33:38.889Z,2.40
2022-09-23T13:36:12.178Z,2.97
2022-09-23T13:38:38.980Z,3.10
2022-09-23T13:41:11.403Z,2.90
2022-09-23T13:43:42.561Z,1.73
2022-09-23T13:46:13.347Z,2.67
2022-09-23T13:48:41.248Z,1.83
2022-09-23T13:51:10.929Z,1.70
2022-09-23T13:53:38.183Z,2.70
2022-09-23T13:56:04.906Z,4.50
2022-09-23T13:58:32.597Z,2.20
2022-09-23T14:00:59.267Z,1.87
2022-09-23T14:03:37.119Z,1.70
2022-09-23T14:06:14.478Z,2.10
2022-09-23T14:08:44.154Z,3.10
2022-09-23T14:11:18.239Z,2.73
2022-09-23T14:13:46.095Z,2.10
2022-09-23T14:16:17.120Z,1.83
2022-09-23T14:18:46.856Z,2.07
2022-09-23T14:21:33.789Z,2.70
2022-09-23T14:24:18.848Z,2.67
2022-09-23T14:26:51.968Z,5.80
2022-09-23T14:29:21.025Z,2.80
2022-09-23T14:32:00.196Z,6.43
2022-09-23T14:35:00.853Z,2.10
2022-09-23T14:37:54.932Z,1.80
2022-09-23T14:40:36.286Z,1.90
2022-09-23T14:43:17.452Z,1.73
2022-09-23T14:45:47.365Z,1.70
2022-09-23T14:48:17.025Z,2.43
2022-09-23T14:50:52.078Z,3.10
2022-09-23T14:53:18.971Z,2.70
2022-09-23T14:55:46.636Z,5.90
2022-09-23T14:58:17.680Z,2.10
2022-09-23T15:00:54.228Z,3.10
2022-09-23T15:03:24.113Z,6.20
2022-09-23T15:05:52.833Z,2.83
2022-09-23T15:08:24.274Z,2.23
2022-09-23T15:10:51.232Z,2.33
2022-09-23T15:13:23.431Z,1.80
2022-09-23T15:15:53.356Z,1.53
2022-09-23T15:18:41.107Z,3.83
2022-09-23T15:21:13.397Z,2.33
2022-09-23T15:23:43.046Z,2.77
2022-09-23T15:26:12.135Z,2.27
2022-09-23T15:28:38.614Z,2.10
2022-09-23T15:31:06.100Z,3.17
2022-09-23T15:33:32.609Z,1.77
2022-09-23T15:35:59.078Z,3.50
2022-09-23T15:38:27.177Z,2.87
2022-09-23T15:40:54.304Z,2.10
2022-09-23T15:43:24.098Z,2.63
2022-09-23T15:45:52.234Z,1.67
2022-09-23T15:48:31.615Z,2.97
2022-09-23T15:51:03.973Z,2.00
2022-09-23T15:53:31.535Z,2.90
2022-09-23T15:55:58.666Z,16.90
2022-09-23T15:58:26.044Z,7.17
2022-09-23T16:00:56.844Z,2.83
2022-09-23T16:03:28.318Z,1.97
2022-09-23T16:06:00.609Z,1.70
2022-09-23T16:08:28.367Z,3.00
2022-09-23T16:10:55.692Z,1.80
2022-09-23T16:13:22.280Z,2.63
2022-09-23T16:15:48.827Z,2.30
2022-09-23T16:18:15.507Z,4.23
2022-09-23T16:20:44.583Z,3.87
2022-09-23T16:23:38.646Z,3.53
2022-09-23T16:26:05.429Z,4.90
2022-09-23T16:28:32.084Z,2.47
2022-09-23T16:30:58.606Z,2.60
2022-09-23T16:33:25.153Z,2.43
2022-09-23T16:35:52.482Z,2.63
2022-09-23T16:38:18.953Z,3.20
2022-09-23T16:40:47.321Z,2.73
2022-09-23T16:43:16.781Z,2.90
2022-09-23T16:45:43.375Z,2.27
2022-09-23T16:48:11.158Z,2.53
2022-09-23T16:50:37.591Z,3.13
2022-09-23T16:53:04.558Z,4.70
2022-09-23T16:55:31.272Z,2.30
2022-09-23T16:57:58.164Z,2.20
2022-09-23T17:00:43.305Z,2.17
2022-09-23T17:03:30.734Z,5.20
2022-09-23T17:05:57.934Z,3.00
2022-09-23T17:08:24.451Z,3.83
2022-09-23T17:10:58.506Z,2.90
2022-09-23T17:13:26.282Z,3.73
2022-09-23T17:15:53.400Z,7.27
2022-09-23T17:18:20.756Z,3.27
2022-09-23T17:20:59.236Z,2.40
2022-09-23T17:23:28.676Z,4.33
2022-09-23T17:25:55.232Z,3.90
2022-09-23T17:28:21.926Z,5.80
2022-09-23T17:30:51.730Z,5.53
2022-09-23T17:33:19.360Z,7.17
2022-09-23T17:35:46.110Z,3.90
2022-09-23T17:38:12.795Z,3.93
2022-09-23T17:40:40.503Z,5.40
2022-09-23T17:43:07.876Z,5.33
2022-09-23T17:45:37.496Z,5.33
2022-09-23T17:48:04.230Z,4.50
2022-09-23T17:50:31.285Z,4.53
2022-09-23T17:53:00.221Z,8.33
2022-09-23T17:55:26.714Z,5.07
2022-09-23T17:57:53.171Z,4.67
2022-09-23T18:00:19.963Z,4.20
2022-09-23T18:02:50.231Z,4.10
2022-09-23T18:05:16.994Z,5.50
2022-09-23T18:07:43.546Z,7.37
2022-09-23T18:10:10.161Z,6.37
2022-09-23T18:12:36.687Z,4.00
2022-09-23T18:15:06.159Z,7.87
2022-09-23T18:17:32.605Z,7.53
2022-09-23T18:19:59.479Z,6.70
2022-09-23T18:22:25.995Z,5.90
2022-09-23T18:24:52.422Z,7.57
2022-09-23T18:27:18.921Z,5.63
2022-09-23T18:29:45.455Z,7.03
2022-09-23T18:32:14.229Z,9.43
2022-09-23T18:34:40.931Z,8.93
2022-09-23T18:37:15.416Z,9.23
2022-09-23T18:39:42.821Z,8.80
2022-09-23T18:42:09.340Z,5.20
2022-09-23T18:44:35.987Z,5.77
2022-09-23T18:47:02.601Z,10.47
2022-09-23T18:49:47.807Z,9.87
2022-09-23T18:52:15.799Z,6.57
2022-09-23T18:54:43.118Z,6.17
2022-09-23T18:57:09.649Z,6.60
2022-09-23T18:59:36.332Z,6.07
2022-09-23T19:02:03.095Z,4.90
2022-09-23T19:04:29.793Z,7.37
2022-09-23T19:06:56.516Z,5.80
2022-09-23T19:09:23.830Z,8.73
2022-09-23T19:11:52.160Z,5.67
2022-09-23T19:14:18.987Z,7.30
2022-09-23T19:16:45.773Z,5.93
2022-09-23T19:19:12.218Z,6.53
2022-09-23T19:21:38.719Z,7.03
2022-09-23T19:24:07.502Z,9.27
2022-09-23T19:26:39.845Z,6.40
2022-09-23T19:29:08.556Z,5.70
2022-09-23T19:31:40.584Z,5.80
2022-09-23T19:34:29.487Z,5.60
2022-09-23T19:36:59.854Z,9.23
2022-09-23T19:39:30.576Z,4.90
2022-09-23T19:41:58.853Z,6.20
2022-09-23T19:44:28.541Z,5.40
2022-09-23T19:46:57.027Z,5.87
2022-09-23T19:49:24.730Z,6.30
2022-09-23T19:51:51.753Z,8.00
2022-09-23T19:54:20.569Z,9.67
2022-09-23T19:56:48.643Z,9.47
2022-09-23T19:59:18.737Z,4.90
2022-09-23T20:01:45.750Z,4.83
2022-09-23T20:04:12.438Z,6.13
2022-09-23T20:06:39.392Z,5.93
2022-09-23T20:09:06.176Z,6.80
2022-09-23T20:11:33.383Z,9.40
2022-09-23T20:14:02.121Z,7.80
2022-09-23T20:16:32.491Z,8.23
2022-09-23T20:19:00.160Z,10.00
2022-09-23T20:21:28.327Z,8.17
2022-09-23T20:23:55.341Z,9.00
2022-09-23T20:26:40.703Z,9.90
2022-09-23T20:29:08.806Z,8.50
2022-09-23T20:31:35.536Z,9.10
2022-09-23T20:34:05.747Z,7.10
2022-09-23T20:36:34.087Z,6.77
2022-09-23T20:39:02.725Z,6.83
2022-09-23T20:41:31.200Z,8.17
2022-09-23T20:44:01.279Z,6.63
2022-09-23T20:46:28.865Z,7.20
2022-09-23T20:48:56.747Z,9.60
2022-09-23T20:51:24.654Z,6.80
2022-09-23T20:53:52.886Z,9.20
2022-09-23T20:56:23.146Z,7.90
2022-09-23T20:58:50.852Z,7.53
2022-09-23T21:01:18.147Z,7.10
2022-09-23T21:03:46.723Z,6.00
2022-09-23T21:06:15.335Z,9.10
2022-09-23T21:08:43.094Z,7.33
2022-09-23T21:11:12.431Z,9.80
2022-09-23T21:13:39.263Z,9.43
2022-09-23T21:16:16.054Z,9.10
2022-09-23T21:18:43.406Z,7.97
2022-09-23T21:21:10.946Z,7.90
2022-09-23T21:23:38.426Z,7.50
2022-09-23T21:26:04.912Z,6.20
2022-09-23T21:28:32.479Z,6.40
2022-09-23T21:31:05.532Z,6.40
2022-09-23T21:33:32.986Z,8.00
2022-09-23T21:36:03.691Z,7.03
2022-09-23T21:38:31.379Z,11.20
2022-09-23T21:40:59.490Z,9.50
2022-09-23T21:43:28.033Z,9.20
2022-09-23T21:45:59.620Z,8.83
2022-09-23T21:48:27.832Z,8.60
2022-09-23T21:51:02.654Z,9.53
2022-09-23T21:53:31.140Z,8.87
2022-09-23T21:56:20.280Z,9.90
2022-09-23T21:58:47.462Z,10.13
2022-09-23T22:01:15.295Z,8.63
2022-09-23T22:03:43.375Z,13.50
2022-09-23T22:06:14.860Z,8.77
2022-09-23T22:08:43.113Z,7.87
2022-09-23T22:11:33.275Z,9.77
2022-09-23T22:14:02.127Z,8.97
2022-09-23T22:16:30.029Z,11.30
2022-09-23T22:18:58.427Z,8.90
2022-09-23T22:21:26.660Z,8.57
2022-09-23T22:23:57.921Z,8.50
2022-09-23T22:26:24.979Z,9.07
2022-09-23T22:29:10.615Z,13.10
2022-09-23T22:31:56.175Z,10.37
2022-09-23T22:34:48.625Z,10.43
2022-09-23T22:37:17.802Z,9.70
2022-09-23T22:39:44.935Z,8.70
2022-09-23T22:42:13.012Z,8.30
2022-09-23T22:44:39.531Z,8.30
2022-09-23T22:47:06.686Z,8.10
2022-09-23T22:49:33.393Z,7.97
2022-09-23T22:51:59.976Z,7.10
2022-09-23T22:54:33.793Z,6.77
2022-09-23T22:57:04.076Z,8.70
2022-09-23T22:59:30.738Z,7.17
2022-09-23T23:01:59.604Z,9.20
2022-09-23T23:04:26.994Z,9.00
2022-09-23T23:06:53.650Z,6.43
2022-09-23T23:09:20.142Z,9.00
2022-09-23T23:11:47.327Z,6.80
2022-09-23T23:14:16.174Z,6.93
2022-09-23T23:16:44.082Z,7.20
2022-09-23T23:19:13.354Z,7.23
2022-09-23T23:21:46.322Z,11.57
2022-09-23T23:24:18.801Z,8.20
2022-09-23T23:26:45.670Z,7.77
2022-09-23T23:29:13.695Z,12.03
2022-09-23T23:31:40.615Z,7.60
2022-09-23T23:34:08.383Z,7.13
2022-09-23T23:36:34.976Z,6.47
2022-09-23T23:39:01.418Z,9.50
2022-09-23T23:41:28.287Z,8.23
2022-09-23T23:43:57.043Z,6.40
2022-09-23T23:46:28.493Z,8.33
2022-09-23T23:48:56.050Z,7.73
2022-09-23T23:51:23.054Z,8.30
2022-09-23T23:53:49.586Z,6.50
2022-09-23T23:56:19.347Z,6.83
2022-09-23T23:58:46.158Z,7.03
